Time;durP1;ratioP1;P1;durP2;ratioP2;P2;SDS_P1;SDS_P2;PMS_P1;PMS_P2;Temp;Humidity;BMP_temperature;BMP_pressure;BME280_temperature;BME280_humidity;BME280_pressure;Samples;Min_cycle;Max_cycle;Signal;HPM_P1;HPM_P2
2022/01/08 00:02:04;;;;;;;18.20;10.50;;;;;;;-4.01;63.34;99327.50;443470;1271;141632;-61
2022/01/08 00:12:12;;;;;;;20.30;10.40;;;;;;;-4.13;63.35;99318.89;447466;1271;141829;-62
2022/01/08 00:22:18;;;;;;;19.90;9.40;;;;;;;-4.25;63.63;99303.94;447470;1271;141501;-61
2022/01/08 00:32:25;;;;;;;18.70;8.40;;;;;;;-4.32;63.69;99296.98;447404;1270;141675;-59
2022/01/08 00:42:31;;;;;;;18.00;9.70;;;;;;;-4.42;64.20;99290.22;446182;1271;141771;-60
2022/01/08 00:52:37;;;;;;;17.40;10.00;;;;;;;-4.52;64.38;99281.59;446833;1273;141574;-60
2022/01/08 01:02:43;;;;;;;13.10;9.10;;;;;;;-4.51;64.57;99280.05;447285;1270;142211;-59
2022/01/08 01:12:49;;;;;;;19.80;9.00;;;;;;;-4.41;64.75;99265.61;445199;1270;142701;-59
2022/01/08 01:23:00;;;;;;;11.90;6.90;;;;;;;-4.39;65.00;99242.19;447581;1270;141067;-59
2022/01/08 01:46:59;;;;;;;12.70;7.70;;;;;;;-4.74;65.52;99221.11;437090;1269;142290;-60
2022/01/08 01:54:02;;;;;;;10.80;6.20;;;;;;;-4.94;65.88;99220.91;434932;1271;142618;-60
2022/01/08 02:04:08;;;;;;;10.40;6.10;;;;;;;-5.12;66.25;99218.63;446334;1271;142506;-59
2022/01/08 02:14:14;;;;;;;10.00;6.20;;;;;;;-5.24;66.54;99222.27;438898;1271;141087;-58
2022/01/08 02:24:20;;;;;;;9.60;5.70;;;;;;;-5.31;66.95;99204.07;429741;1271;140993;-60
2022/01/08 02:34:27;;;;;;;6.10;5.10;;;;;;;-5.32;67.05;99214.48;447349;1270;143779;-59
2022/01/08 02:44:33;;;;;;;9.30;5.30;;;;;;;-5.27;67.38;99211.55;441970;1270;143445;-68
2022/01/08 02:54:37;;;;;;;;;;;;;;;-5.30;67.31;99203.89;442915;1270;141373;-70
2022/01/08 03:04:45;;;;;;;9.70;5.60;;;;;;;-5.45;67.63;99195.95;447692;1269;128023;-69
2022/01/08 03:14:51;;;;;;;8.00;5.10;;;;;;;-5.58;67.79;99186.64;447510;1269;141761;-71
2022/01/08 03:24:56;;;;;;;13.40;5.70;;;;;;;-5.65;68.26;99173.36;446433;1270;141248;-69
2022/01/08 03:35:03;;;;;;;9.90;5.60;;;;;;;-5.66;68.41;99168.23;447521;1270;141488;-70
2022/01/08 03:45:10;;;;;;;7.20;5.20;;;;;;;-5.62;68.75;99152.89;447488;1270;140885;-69
2022/01/08 03:55:16;;;;;;;10.20;5.10;;;;;;;-5.50;68.75;99148.55;435890;1271;140607;-69
2022/01/08 04:05:22;;;;;;;11.00;5.00;;;;;;;-5.41;68.81;99150.38;430356;1271;142587;-69
2022/01/08 04:15:37;;;;;;;9.00;5.60;;;;;;;-5.53;68.88;99149.08;435918;1269;140824;-70
2022/01/08 04:25:43;;;;;;;8.60;5.10;;;;;;;-5.75;69.04;99144.77;447488;1270;141462;-70
2022/01/08 04:35:49;;;;;;;8.30;4.90;;;;;;;-5.90;69.51;99127.27;447417;1269;140995;-69
2022/01/08 04:45:55;;;;;;;8.40;5.00;;;;;;;-5.99;69.60;99125.95;445161;1271;141664;-71
2022/01/08 04:56:01;;;;;;;10.80;7.10;;;;;;;-6.07;69.99;99125.66;447388;1271;141492;-69
2022/01/08 05:06:05;;;;;;;;;;;;;;;-6.05;70.21;99118.15;447452;1269;141461;-69
2022/01/08 05:16:11;;;;;;;12.10;6.10;;;;;;;-5.88;70.46;99114.98;439178;1270;128240;-69
2022/01/08 05:26:17;;;;;;;8.00;5.30;;;;;;;-5.69;70.58;99112.67;447508;1270;140825;-70
2022/01/08 05:36:23;;;;;;;10.60;6.50;;;;;;;-5.55;70.47;99113.27;446740;1271;141495;-69
2022/01/08 05:46:28;;;;;;;10.80;6.00;;;;;;;-5.53;70.46;99110.86;447477;1271;141068;-69
2022/01/08 05:56:34;;;;;;;9.60;6.40;;;;;;;-5.59;70.57;99103.06;447436;1270;141071;-70
2022/01/08 06:06:40;;;;;;;14.20;7.30;;;;;;;-5.64;70.73;99105.66;446624;1271;141094;-70
2022/01/08 06:16:46;;;;;;;12.20;8.50;;;;;;;-5.64;70.86;99105.13;446170;1271;141416;-69
2022/01/08 06:26:52;;;;;;;12.60;7.90;;;;;;;-5.40;71.04;99095.61;433744;1272;142624;-70
2022/01/08 06:36:57;;;;;;;12.40;7.60;;;;;;;-5.07;71.00;99104.40;446157;1271;141998;-70
2022/01/08 06:47:03;;;;;;;10.80;6.30;;;;;;;-4.91;70.59;99104.61;445719;1272;141202;-70
2022/01/08 06:57:09;;;;;;;18.20;8.20;;;;;;;-4.88;70.60;99106.80;447466;1271;142085;-69
2022/01/08 07:07:15;;;;;;;18.20;9.90;;;;;;;-4.63;70.58;99106.91;447428;1271;142002;-72
2022/01/08 07:17:21;;;;;;;17.50;9.90;;;;;;;-4.31;70.30;99110.85;447525;1270;142070;-69
2022/01/08 07:27:30;;;;;;;16.70;10.50;;;;;;;-4.19;70.11;99101.31;446628;1270;141702;-69
2022/01/08 07:37:35;;;;;;;16.20;11.80;;;;;;;-3.89;69.98;99097.20;444619;1271;140947;-69
2022/01/08 07:47:41;;;;;;;16.60;9.00;;;;;;;-3.40;69.81;99101.31;437990;1270;142499;-70
2022/01/08 07:57:47;;;;;;;12.20;9.00;;;;;;;-3.13;69.55;99102.11;446026;1270;141139;-70
2022/01/08 08:07:55;;;;;;;18.00;10.90;;;;;;;-2.85;69.36;99110.56;447509;1270;142056;-70
2022/01/08 08:18:00;;;;;;;18.70;11.40;;;;;;;-2.75;69.18;99109.87;444744;1271;142073;-69
2022/01/08 08:28:07;;;;;;;18.20;12.10;;;;;;;-2.72;69.20;99111.19;441364;1270;141202;-69
2022/01/08 08:38:11;;;;;;;;;;;;;;;-2.65;69.29;99122.38;446780;1270;141643;-70
2022/01/08 08:48:17;;;;;;;15.60;10.60;;;;;;;-2.58;69.39;99116.44;446967;1271;127656;-69
2022/01/08 08:58:23;;;;;;;20.20;12.00;;;;;;;-2.50;69.40;99120.58;445169;1271;142213;-70
2022/01/08 09:08:29;;;;;;;17.60;10.80;;;;;;;-2.27;69.57;99120.16;447460;1268;141603;-70
2022/01/08 09:18:35;;;;;;;20.20;11.70;;;;;;;-2.10;69.66;99117.25;446548;1270;141503;-71
2022/01/08 09:28:41;;;;;;;18.30;11.00;;;;;;;-1.93;69.88;99114.87;447460;1271;192316;-72
2022/01/08 09:38:47;;;;;;;23.30;13.80;;;;;;;-1.83;70.31;99103.50;446472;1271;140523;-69
2022/01/08 09:48:53;;;;;;;15.70;12.90;;;;;;;-1.35;70.84;99091.64;441461;1270;142172;-69
2022/01/08 09:59:00;;;;;;;22.00;14.00;;;;;;;-0.94;70.66;99077.09;430118;1271;141582;-72
2022/01/08 10:09:05;;;;;;;;;;;;;;;-0.87;70.94;99063.69;440216;1270;141819;-69
2022/01/08 10:19:21;;;;;;;22.20;14.10;;;;;;;-0.87;71.09;99065.40;447635;1271;126988;-71
2022/01/08 10:29:26;;;;;;;24.50;16.80;;;;;;;-0.90;71.13;99068.41;439769;1271;141496;-71
2022/01/08 10:39:34;;;;;;;20.40;14.10;;;;;;;-0.85;71.22;99056.58;445157;1271;141688;-71
2022/01/08 10:49:43;;;;;;;18.90;13.80;;;;;;;-0.62;71.19;99043.79;437545;1270;141845;-72
2022/01/08 10:59:57;;;;;;;18.60;12.50;;;;;;;-0.40;70.99;99041.65;440984;1270;140476;-72
2022/01/08 11:10:07;;;;;;;18.70;11.20;;;;;;;-0.48;70.58;99041.35;428483;1271;140816;-72
2022/01/08 11:20:16;;;;;;;18.90;12.80;;;;;;;-0.56;70.79;99036.76;447295;1271;151647;-71
2022/01/08 11:30:24;;;;;;;18.40;10.90;;;;;;;-0.61;70.95;99038.25;446574;1271;141904;-70
2022/01/08 11:40:31;;;;;;;18.00;13.30;;;;;;;-0.54;70.73;99035.82;447049;1271;143519;-61
2022/01/08 11:50:38;;;;;;;22.60;12.90;;;;;;;-0.52;70.51;99029.60;447170;1271;141528;-65
2022/01/08 12:00:51;;;;;;;23.50;15.10;;;;;;;-0.61;70.56;99028.11;446272;1270;141840;-64
2022/01/08 12:11:00;;;;;;;20.70;14.10;;;;;;;-0.55;70.54;99021.95;447030;1271;141182;-65
2022/01/08 12:21:05;;;;;;;28.00;16.90;;;;;;;-0.45;70.73;99007.91;437387;1271;141516;-64
2022/01/08 12:31:37;;;;;;;20.60;15.20;;;;;;;-0.21;70.79;99004.98;429618;1272;142490;-64
2022/01/08 12:41:42;;;;;;;23.60;14.60;;;;;;;-0.06;70.36;98990.98;445010;1271;141754;-64
2022/01/08 12:52:11;;;;;;;22.30;13.90;;;;;;;0.03;69.81;98982.60;445872;1272;140969;-64
2022/01/08 13:02:17;;;;;;;18.70;13.10;;;;;;;0.02;69.61;98979.37;438648;1270;177935;-64
2022/01/08 13:12:25;;;;;;;19.60;12.40;;;;;;;-0.01;69.66;98982.89;439901;1269;140776;-63
2022/01/08 13:22:31;;;;;;;25.00;13.90;;;;;;;-0.00;69.58;98975.63;447424;1271;141352;-64
2022/01/08 13:32:37;;;;;;;18.40;13.10;;;;;;;0.13;69.61;98971.29;447375;1271;142909;-64
2022/01/08 13:42:44;;;;;;;22.30;13.30;;;;;;;0.18;69.53;98963.90;446440;1270;141425;-63
2022/01/08 13:52:56;;;;;;;25.40;14.90;;;;;;;0.03;69.47;98964.02;434308;1271;141806;-63
2022/01/08 14:03:02;;;;;;;29.30;15.00;;;;;;;-0.15;69.54;98954.73;447276;1271;142143;-64
2022/01/08 14:13:11;;;;;;;20.90;13.20;;;;;;;-0.35;70.07;98958.95;446714;1271;142765;-63
2022/01/08 14:23:20;;;;;;;23.50;14.40;;;;;;;-0.53;70.09;98962.39;447346;1269;141488;-63
2022/01/08 14:33:26;;;;;;;27.00;15.10;;;;;;;-0.63;70.60;98960.77;446701;1271;142557;-64
2022/01/08 14:43:31;;;;;;;28.40;16.10;;;;;;;-0.67;70.48;98958.82;447434;1270;143837;-64
2022/01/08 14:53:37;;;;;;;24.30;16.40;;;;;;;-0.73;70.77;98958.11;443653;1270;142358;-64
2022/01/08 15:03:43;;;;;;;28.50;18.10;;;;;;;-0.81;70.68;98966.44;433083;1269;142021;-62
2022/01/08 15:13:50;;;;;;;34.10;18.90;;;;;;;-0.93;71.43;98963.51;429713;1271;141902;-64
2022/01/08 15:23:56;;;;;;;32.80;20.50;;;;;;;-1.05;71.48;98962.27;444262;1270;141134;-63
2022/01/08 15:34:01;;;;;;;37.30;23.00;;;;;;;-1.15;71.75;98963.38;446617;1270;143127;-63
2022/01/08 15:44:09;;;;;;;30.00;19.70;;;;;;;-1.12;71.71;98960.04;440240;1270;143136;-64
2022/01/08 15:54:15;;;;;;;30.80;20.90;;;;;;;-1.05;71.97;98951.77;442026;1270;144248;-63
2022/01/08 16:04:21;;;;;;;39.90;23.70;;;;;;;-1.03;72.09;98945.38;442366;1270;141102;-63
2022/01/08 16:14:27;;;;;;;47.00;29.20;;;;;;;-1.07;72.40;98942.20;447244;1270;141564;-63
2022/01/08 16:24:33;;;;;;;53.10;29.00;;;;;;;-1.15;72.54;98944.11;446600;1270;142068;-63
2022/01/08 16:34:39;;;;;;;45.20;27.40;;;;;;;-1.22;72.63;98936.58;447445;1270;141564;-63
2022/01/08 16:44:45;;;;;;;41.50;25.40;;;;;;;-1.29;72.73;98935.05;436651;1270;143463;-63
2022/01/08 16:54:51;;;;;;;37.40;23.20;;;;;;;-1.23;72.87;98928.73;429481;1270;202684;-58
2022/01/08 17:05:00;;;;;;;45.20;28.00;;;;;;;-1.18;73.00;98919.14;429518;1270;142153;-66
2022/01/08 17:15:13;;;;;;;35.20;20.70;;;;;;;-1.27;73.05;98902.39;429772;1271;140790;-66
2022/01/08 17:25:19;;;;;;;36.80;21.40;;;;;;;-1.41;73.13;98899.96;447089;1271;141335;-68
2022/01/08 17:35:25;;;;;;;34.20;23.10;;;;;;;-1.45;73.37;98887.39;431691;1269;141495;-67
2022/01/08 17:45:32;;;;;;;39.00;22.60;;;;;;;-1.39;73.60;98875.39;428794;1270;142941;-68
2022/01/08 17:55:38;;;;;;;35.60;21.30;;;;;;;-1.29;73.52;98871.48;438322;1270;141985;-66
2022/01/08 18:05:44;;;;;;;31.80;19.30;;;;;;;-1.22;73.40;98854.83;429716;1270;142310;-66
2022/01/08 18:15:50;;;;;;;38.00;21.60;;;;;;;-1.29;73.13;98854.34;429042;1271;141734;-66
2022/01/08 18:25:56;;;;;;;34.90;20.00;;;;;;;-1.44;73.47;98844.93;429755;1270;140835;-66
2022/01/08 18:36:02;;;;;;;48.70;24.40;;;;;;;-1.58;73.65;98838.79;445019;1271;141602;-66
2022/01/08 18:46:07;;;;;;;67.30;40.90;;;;;;;-1.65;73.79;98834.00;446489;1270;141883;-67
2022/01/08 18:56:13;;;;;;;39.20;23.40;;;;;;;-1.57;73.73;98828.63;447152;1270;143899;-66
2022/01/08 19:06:19;;;;;;;45.90;25.10;;;;;;;-1.40;73.67;98826.46;446565;1270;141560;-66
2022/01/08 19:16:25;;;;;;;39.10;23.00;;;;;;;-1.23;73.58;98824.98;429897;1271;141382;-66
2022/01/08 19:26:32;;;;;;;34.00;20.50;;;;;;;-1.20;73.35;98822.84;444484;1269;141883;-68
2022/01/08 19:36:38;;;;;;;34.40;19.30;;;;;;;-1.28;73.46;98808.30;445929;1270;141303;-67
2022/01/08 19:46:44;;;;;;;44.50;26.40;;;;;;;-1.41;73.40;98800.90;447209;1270;142122;-67
2022/01/08 19:56:49;;;;;;;43.80;26.40;;;;;;;-1.47;73.48;98796.64;447311;1270;141852;-67
2022/01/08 20:06:55;;;;;;;43.50;24.90;;;;;;;-1.45;73.79;98788.48;433111;1270;142111;-66
2022/01/08 20:17:02;;;;;;;37.70;21.80;;;;;;;-1.37;73.72;98781.23;440351;1271;142469;-66
2022/01/08 20:27:07;;;;;;;;;;;;;;;-1.32;73.51;98764.27;443905;1270;140891;-67
2022/01/08 20:37:13;;;;;;;32.70;19.60;;;;;;;-1.33;73.48;98756.05;437927;1270;126905;-68
2022/01/08 20:47:19;;;;;;;39.40;22.80;;;;;;;-1.39;73.12;98745.23;441829;1270;143058;-66
2022/01/08 20:57:24;;;;;;;38.30;24.50;;;;;;;-1.50;73.50;98729.40;438744;1271;141727;-67
2022/01/08 21:07:30;;;;;;;35.90;21.10;;;;;;;-1.48;73.53;98732.42;447360;1270;143868;-67
2022/01/08 21:17:36;;;;;;;38.10;24.20;;;;;;;-1.31;73.46;98728.89;447383;1269;142759;-66
2022/01/08 21:27:42;;;;;;;43.80;26.70;;;;;;;-1.22;73.45;98718.13;437870;1270;143074;-66
2022/01/08 21:37:54;;;;;;;42.40;27.00;;;;;;;-1.24;73.50;98709.07;433105;1271;141060;-67
2022/01/08 21:48:00;;;;;;;44.90;25.40;;;;;;;-1.36;73.46;98704.81;431253;1271;142477;-65
2022/01/08 21:58:09;;;;;;;40.80;25.60;;;;;;;-1.51;73.53;98686.34;437748;1270;143272;-67
2022/01/08 22:08:15;;;;;;;38.60;23.70;;;;;;;-1.64;73.60;98675.55;444052;1270;141561;-67
2022/01/08 22:18:21;;;;;;;44.20;26.90;;;;;;;-1.71;73.90;98658.94;446551;1271;142137;-66
2022/01/08 22:28:27;;;;;;;39.00;23.60;;;;;;;-1.67;73.91;98643.05;447265;1271;141845;-68
2022/01/08 22:38:33;;;;;;;35.40;22.50;;;;;;;-1.61;73.89;98637.20;441685;1270;144997;-67
2022/01/08 22:48:38;;;;;;;34.40;23.30;;;;;;;-1.51;73.95;98621.80;434776;1271;142826;-66
2022/01/08 22:58:44;;;;;;;38.10;23.80;;;;;;;-1.43;73.96;98606.45;447350;1270;142325;-67
2022/01/08 23:08:51;;;;;;;36.50;20.90;;;;;;;-1.46;73.84;98585.76;447341;1270;142571;-67
2022/01/08 23:18:58;;;;;;;38.50;22.40;;;;;;;-1.58;73.77;98571.73;446695;1270;141429;-67
2022/01/08 23:29:07;;;;;;;35.90;22.70;;;;;;;-1.81;73.73;98562.45;447377;1270;141943;-64
2022/01/08 23:39:13;;;;;;;36.20;21.70;;;;;;;-2.29;74.15;98543.42;446621;1270;141340;-63
2022/01/08 23:49:24;;;;;;;31.50;20.70;;;;;;;-2.69;74.77;98531.15;446642;1270;211557;-64
2022/01/08 23:59:30;;;;;;;39.80;21.80;;;;;;;-2.93;75.21;98530.23;447068;1270;142577;-65
